MDT,Max TemperatureF,Mean TemperatureF,Min TemperatureF,Max Dew PointF,MeanDew PointF,Min DewpointF,Max Humidity, Mean Humidity, Min Humidity, Max Sea Level PressureIn, Mean Sea Level PressureIn, Min Sea Level PressureIn, Max VisibilityMiles, Mean VisibilityMiles, Min VisibilityMiles, Max Wind SpeedMPH, Mean Wind SpeedMPH, Max Gust SpeedMPH,PrecipitationIn, CloudCover, Events, WindDirDegrees
2013-3-1,45,32,19,26,19,15,88,60,31,30.38,30.31,30.23,10,10,10,15,5,20,0.00,2,,288
2013-3-2,61,46,31,30,29,27,82,56,29,30.23,30.12,29.92,10,10,10,16,5,21,0.00,2,,291
2013-3-3,62,47,32,33,29,25,82,55,27,29.90,29.65,29.51,10,10,6,25,8,38,0.00,2,,290
2013-3-4,37,30,22,24,10,-1,78,53,27,30.27,29.97,29.71,10,9,6,28,16,45,0.00,6,,304
2013-3-5,35,21,7,14,9,4,88,58,28,30.47,30.39,30.30,10,10,10,20,5,25,0.00,0,,34
2013-3-6,53,37,21,24,18,12,68,48,28,30.27,30.03,29.87,10,10,10,31,17,41,0.00,0,,185
2013-3-7,65,47,28,27,25,22,78,49,20,30.09,29.96,29.85,10,10,10,28,10,35,0.00,1,,56
2013-3-8,45,34,22,28,26,21,88,71,53,30.12,29.99,29.80,10,9,5,15,7,20,0.00,1,,62
2013-3-9,42,35,27,29,25,15,100,70,40,30.16,29.86,29.73,10,5,1,29,13,41,0.05,7,Snow,359
2013-3-10,40,29,17,16,8,2,80,50,20,30.27,30.19,30.05,10,10,10,23,10,30,0.00,1,,5
2013-3-11,51,35,19,26,17,12,80,52,23,30.16,30.01,29.90,10,10,8,22,9,30,T,4,,308
2013-3-12,43,28,13,17,8,0,84,51,18,30.35,30.31,30.19,10,10,7,23,7,32,0.00,1,,349
2013-3-13,66,47,28,26,22,9,70,45,19,30.26,30.15,30.05,10,10,5,22,6,26,0.00,2,,264
2013-3-14,73,51,28,30,26,22,78,47,15,30.26,30.11,29.96,10,10,2,17,4,22,0.00,0,,242
2013-3-15,71,51,30,33,27,22,78,47,16,29.96,29.87,29.79,10,10,9,22,7,29,0.00,1,,20
2013-3-16,45,36,26,29,27,22,85,82,78,30.10,30.02,29.91,10,7,1,20,9,25,0.02,8,Snow,90
2013-3-17,60,44,27,30,26,8,92,53,14,29.96,29.65,29.38,10,7,1,45,17,60,0.02,7,Snow,249
2013-3-18,41,27,13,27,16,10,84,59,34,30.06,29.95,29.77,10,10,9,22,6,28,0.00,2,,319
2013-3-19,43,28,12,25,16,4,70,53,35,30.46,30.22,30.01,10,9,1,21,8,28,T,5,Snow,337
2013-3-20,51,29,6,19,12,1,80,51,22,30.46,30.13,29.72,10,10,10,32,13,41,0.00,1,,147
2013-3-21,47,37,27,32,27,16,100,69,37,29.83,29.70,29.63,10,3,0,18,10,24,0.18,6,Fog-Snow,172
2013-3-22,42,30,18,30,25,16,100,80,59,30.07,29.90,29.78,10,6,1,24,7,31,0.08,6,Snow,356
2013-3-23,27,22,16,25,14,9,84,72,60,30.34,30.19,29.99,,,,21,10,28,0.01,5,Snow,2
2013-3-24,25,16,7,12,9,3,88,69,50,30.41,30.27,30.13,,,,25,11,32,T,4,Snow,351
2013-3-25,34,20,5,12,8,3,83,56,29,30.46,30.38,30.27,10,10,10,13,6,17,0.00,2,,342
2013-3-26,54,35,16,25,13,5,84,49,14,30.29,30.11,29.98,10,10,8,18,8,23,0.00,0,,214
2013-3-27,58,35,12,25,15,8,92,54,15,30.19,30.12,30.06,10,10,10,16,3,20,0.00,0,,100
2013-3-28,66,48,30,31,26,21,75,47,19,30.12,30.06,30.00,10,10,10,12,5,16,T,2,,331
2013-3-29,71,51,30,35,29,24,76,49,21,30.10,30.02,29.91,10,10,10,22,5,29,T,2,,281
2013-3-30,57,44,31,41,35,30,92,69,46,30.16,30.09,30.02,10,10,10,21,6,25,0.04,5,Rain,279
2013-3-31,64,42,20,35,25,17,92,57,21,30.21,30.09,29.90,10,10,7,26,9,36,0.00,3,,27